This is the latest recevied weather packets stored in our database for station/object IZ5MJO-13. If no packets are shown the sender has not sent any weather packets the latest 10 day(s).
| Time | Temp. | Humidity | Pressure | Rain* | Wind** | Luminosity | Snow |
|---|---|---|---|---|---|---|---|
| 1777364904 | 18.33° C | 46% | 1006.2 hPa | - | - | - | - |
| 1777364009 | 17.78° C | 46% | 1006.1 hPa | - | - | - | - |
| 1777363109 | 16.67° C | 49% | 1006.2 hPa | - | - | - | - |
| 1777362209 | 16.11° C | 52% | 1006.3 hPa | - | - | - | - |
| 1777361308 | 16.11° C | 53% | 1006.3 hPa | - | - | - | - |
| 1777360408 | 15.56° C | 49% | 1006.2 hPa | - | - | - | - |
| 1777359508 | 15.56° C | 50% | 1006.2 hPa | - | - | - | - |
| 1777358608 | 15° C | 57% | 1006.2 hPa | - | - | - | - |
| 1777357708 | 14.44° C | 59% | 1006.1 hPa | - | - | - | - |
| 1777356807 | 14.44° C | 58% | 1006.1 hPa | - | - | - | - |
| 1777355907 | 13.89° C | 59% | 1006 hPa | - | - | - | - |
| 1777355006 | 13.89° C | 59% | 1005.8 hPa | - | - | - | - |
| 1777354106 | 13.33° C | 61% | 1005.8 hPa | - | - | - | - |
| 1777353206 | 13.33° C | 63% | 1005.6 hPa | - | - | - | - |
| 1777352306 | 12.78° C | 64% | 1005.5 hPa | - | - | - | - |
| 1777351405 | 12.78° C | 64% | 1005.4 hPa | - | - | - | - |
| 1777350505 | 12.22° C | 64% | 1005.4 hPa | - | - | - | - |
| 1777349605 | 12.22° C | 63% | 1005.7 hPa | - | - | - | - |
| 1777348705 | 12.22° C | 63% | 1005.6 hPa | - | - | - | - |
| 1777347805 | 12.22° C | 61% | 1005.5 hPa | - | - | - | - |
| 1777346904 | 12.22° C | 62% | 1005.7 hPa | - | - | - | - |
| 1777346004 | 12.22° C | 60% | 1005.7 hPa | - | - | - | - |
| 1777345641 | 12.78° C | 55% | 1005.9 hPa | - | - | - | - |
| 1777345104 | 12.78° C | 58% | 1005.9 hPa | - | - | - | - |
| 1777344204 | 12.78° C | 57% | 1005.8 hPa | - | - | - | - |
* Rain since midnight (hover to see other rain measurements)
** Current wind speed in m/s (hover to see current wind gust speed)